Time;durP1;ratioP1;P1;durP2;ratioP2;P2;SDS_P1;SDS_P2;PMS_P1;PMS_P2;Temp;Humidity;BMP_temperature;BMP_pressure;BME280_temperature;BME280_humidity;BME280_pressure;Samples;Min_cycle;Max_cycle;Signal;HPM_P1;HPM_P2
2021/10/22 00:02:00;;;;;;;33.23;4.30;;;8.40;99.90;;;;;;5063125;28;20452;-84
2021/10/22 00:04:27;;;;;;;35.73;3.37;;;8.30;99.90;;;;;;5063982;28;20568;-84
2021/10/22 00:06:54;;;;;;;37.10;4.17;;;8.20;99.90;;;;;;5064026;28;20503;-84
2021/10/22 00:09:22;;;;;;;37.23;3.93;;;8.20;99.90;;;;;;5072053;28;20448;-83
2021/10/22 00:11:49;;;;;;;33.63;3.97;;;8.10;99.90;;;;;;5064280;28;20471;-84
2021/10/22 00:14:16;;;;;;;37.87;3.83;;;8.10;99.90;;;;;;5064482;28;20468;-84
2021/10/22 00:16:43;;;;;;;36.10;4.03;;;8.20;99.90;;;;;;5063814;28;20906;-84
2021/10/22 00:19:11;;;;;;;36.10;4.07;;;8.30;99.90;;;;;;5063274;28;20845;-84
2021/10/22 00:21:38;;;;;;;31.00;3.40;;;8.30;99.90;;;;;;5043476;28;20522;-84
2021/10/22 00:24:06;;;;;;;34.40;4.20;;;8.30;99.90;;;;;;5044322;28;20549;-83
2021/10/22 00:26:34;;;;;;;36.77;4.33;;;8.20;99.90;;;;;;5041538;28;20531;-83
2021/10/22 00:29:01;;;;;;;37.27;4.60;;;8.30;99.90;;;;;;5043396;28;20892;-83
2021/10/22 00:31:28;;;;;;;36.70;4.20;;;8.30;99.90;;;;;;5062309;28;20444;-83
2021/10/22 00:33:55;;;;;;;34.07;3.70;;;8.30;99.90;;;;;;5062901;28;20479;-83
2021/10/22 00:36:22;;;;;;;32.77;3.90;;;8.10;99.90;;;;;;5063908;28;20463;-83
2021/10/22 00:38:48;;;;;;;34.23;3.80;;;8.20;99.90;;;;;;5063144;28;20504;-82
2021/10/22 00:41:17;;;;;;;30.93;3.20;;;8.30;99.90;;;;;;5056550;28;20544;-83
2021/10/22 00:43:46;;;;;;;30.00;3.67;;;8.40;99.90;;;;;;5058574;28;20992;-83
2021/10/22 00:46:12;;;;;;;39.37;4.33;;;8.40;99.90;;;;;;5061299;28;20457;-84
2021/10/22 00:48:40;;;;;;;32.63;3.83;;;8.40;99.90;;;;;;5060427;28;20449;-84
2021/10/22 00:51:09;;;;;;;33.13;4.07;;;8.40;99.90;;;;;;5058889;28;20451;-84
2021/10/22 00:53:37;;;;;;;32.60;4.70;;;8.40;99.90;;;;;;5063068;28;20474;-84
2021/10/22 00:56:05;;;;;;;29.23;3.20;;;8.30;99.90;;;;;;5062572;28;20484;-84
2021/10/22 00:58:32;;;;;;;40.60;4.23;;;8.40;99.90;;;;;;5062199;28;20483;-84
2021/10/22 01:01:00;;;;;;;35.07;3.40;;;8.40;99.90;;;;;;5060609;28;20510;-86
2021/10/22 01:03:27;;;;;;;33.93;3.60;;;8.40;99.90;;;;;;5060144;28;20471;-83
2021/10/22 01:05:54;;;;;;;37.43;4.80;;;8.40;99.90;;;;;;5064767;28;20447;-83
2021/10/22 01:08:21;;;;;;;33.57;3.33;;;8.50;99.90;;;;;;5065086;28;20448;-83
2021/10/22 01:10:49;;;;;;;33.10;2.83;;;8.60;99.90;;;;;;5062560;28;20457;-82
2021/10/22 01:13:16;;;;;;;34.47;3.83;;;8.50;99.90;;;;;;5064987;28;20509;-83
2021/10/22 01:15:43;;;;;;;30.70;4.20;;;8.50;99.90;;;;;;5064732;28;20458;-83
2021/10/22 01:18:11;;;;;;;36.93;4.20;;;8.60;99.90;;;;;;5064991;28;20457;-82
2021/10/22 01:20:41;;;;;;;40.10;6.80;;;8.60;99.90;;;;;;5058220;28;20479;-83
2021/10/22 01:23:08;;;;;;;34.83;4.10;;;8.50;99.90;;;;;;5057619;28;20543;-84
2021/10/22 01:25:35;;;;;;;29.57;3.30;;;8.50;99.90;;;;;;5058570;28;20446;-83
2021/10/22 01:28:04;;;;;;;35.13;4.47;;;8.60;99.90;;;;;;5053321;28;20456;-83
2021/10/22 01:30:31;;;;;;;33.60;3.87;;;8.60;99.90;;;;;;5060302;28;20494;-84
2021/10/22 01:33:02;;;;;;;30.77;3.63;;;8.60;99.90;;;;;;5060836;28;20444;-84
2021/10/22 01:35:29;;;;;;;31.40;4.63;;;8.60;99.90;;;;;;5061605;28;20458;-84
2021/10/22 01:37:58;;;;;;;35.57;4.20;;;8.50;99.90;;;;;;5062269;28;20451;-86
2021/10/22 01:40:25;;;;;;;44.50;4.40;;;8.50;99.90;;;;;;5064961;28;20571;-85
2021/10/22 01:42:52;;;;;;;36.90;3.70;;;8.50;99.90;;;;;;5068346;28;20982;-86
2021/10/22 01:45:19;;;;;;;32.77;3.00;;;8.40;99.90;;;;;;5067699;28;20455;-85
2021/10/22 01:47:46;;;;;;;30.90;3.40;;;8.50;99.90;;;;;;5066221;28;20463;-86
2021/10/22 01:50:13;;;;;;;32.00;3.00;;;8.40;99.90;;;;;;5071200;28;20516;-85
2021/10/22 01:52:40;;;;;;;34.03;3.73;;;8.30;99.90;;;;;;5079799;28;20504;-86
2021/10/22 01:55:09;;;;;;;35.53;3.90;;;8.40;99.90;;;;;;5076807;28;20535;-84
2021/10/22 01:57:37;;;;;;;34.20;4.03;;;8.30;99.90;;;;;;5078131;28;20453;-85
2021/10/22 02:00:06;;;;;;;29.63;2.97;;;8.30;99.90;;;;;;5078750;28;20970;-86
2021/10/22 02:02:32;;;;;;;31.97;2.90;;;8.30;99.90;;;;;;5079968;28;20535;-85
2021/10/22 02:04:59;;;;;;;31.37;2.50;;;8.30;99.90;;;;;;5079240;28;20471;-86
2021/10/22 02:07:27;;;;;;;33.57;3.00;;;8.20;99.90;;;;;;5079684;28;20452;-85
2021/10/22 02:09:54;;;;;;;30.17;2.37;;;8.30;99.90;;;;;;5077301;28;20467;-83
2021/10/22 02:12:22;;;;;;;31.83;2.10;;;8.20;99.90;;;;;;5078528;28;20475;-83
2021/10/22 02:14:49;;;;;;;31.23;2.37;;;8.20;99.90;;;;;;5079087;28;20486;-85
2021/10/22 02:17:15;;;;;;;34.43;2.77;;;8.10;99.90;;;;;;5078459;28;20444;-84
2021/10/22 02:19:42;;;;;;;33.13;2.67;;;8.00;99.90;;;;;;5071904;28;20450;-85
2021/10/22 02:22:09;;;;;;;34.03;3.30;;;8.00;99.90;;;;;;5066795;28;20538;-85
2021/10/22 02:24:38;;;;;;;31.33;2.63;;;8.00;99.90;;;;;;5066283;28;20570;-85
2021/10/22 02:27:05;;;;;;;33.07;2.67;;;7.90;99.90;;;;;;5067699;28;20467;-85
2021/10/22 02:29:33;;;;;;;34.30;2.43;;;7.90;99.90;;;;;;5065354;28;20474;-85
2021/10/22 02:32:00;;;;;;;35.20;3.30;;;7.80;99.90;;;;;;5066705;28;20806;-86
2021/10/22 02:34:27;;;;;;;31.60;2.40;;;7.90;99.90;;;;;;5065966;28;20468;-85
2021/10/22 02:36:54;;;;;;;36.80;2.50;;;7.80;99.90;;;;;;5066216;28;20451;-86
2021/10/22 02:39:21;;;;;;;32.70;2.47;;;7.80;99.90;;;;;;5064131;28;20456;-85
2021/10/22 02:41:48;;;;;;;30.03;2.50;;;7.80;99.90;;;;;;5045628;28;20593;-85
2021/10/22 02:44:15;;;;;;;40.80;4.00;;;7.70;99.90;;;;;;5067589;28;20471;-85
2021/10/22 02:46:43;;;;;;;24.55;3.40;;;7.80;99.90;;;;;;5058056;28;20450;-87
2021/10/22 02:49:10;;;;;;;29.17;2.77;;;7.70;99.90;;;;;;5055406;28;20592;-86
2021/10/22 02:51:37;;;;;;;39.23;5.20;;;7.90;99.90;;;;;;5057166;28;20451;-85
2021/10/22 02:54:04;;;;;;;35.50;3.67;;;7.80;99.90;;;;;;5057764;28;20483;-87
2021/10/22 02:56:31;;;;;;;34.67;2.67;;;7.80;99.90;;;;;;5054888;28;20451;-86
2021/10/22 02:58:58;;;;;;;30.70;3.50;;;7.90;99.90;;;;;;5058295;28;20453;-87
2021/10/22 03:01:25;;;;;;;33.17;2.90;;;7.90;99.90;;;;;;5057662;28;20498;-87
2021/10/22 03:03:53;;;;;;;35.97;2.97;;;7.90;99.90;;;;;;5060050;28;20468;-87
2021/10/22 03:06:20;;;;;;;35.60;3.23;;;7.90;99.90;;;;;;5055291;28;20453;-86
2021/10/22 03:08:47;;;;;;;34.20;3.30;;;7.90;99.90;;;;;;5056653;28;20448;-86
2021/10/22 03:11:14;;;;;;;36.37;3.13;;;7.90;99.90;;;;;;5058357;28;20528;-87
2021/10/22 03:13:41;;;;;;;30.67;2.77;;;7.90;99.90;;;;;;5055463;28;20468;-86
2021/10/22 03:16:08;;;;;;;40.67;4.17;;;7.80;99.90;;;;;;5059033;28;20483;-85
2021/10/22 03:18:35;;;;;;;34.00;3.40;;;7.70;99.90;;;;;;5053990;28;20452;-86
2021/10/22 03:21:03;;;;;;;34.50;3.87;;;7.80;99.90;;;;;;5056984;28;20928;-86
2021/10/22 03:23:30;;;;;;;39.67;3.80;;;7.80;99.90;;;;;;5056071;28;20975;-86
2021/10/22 03:25:56;;;;;;;40.37;3.77;;;7.70;99.90;;;;;;5056620;28;20491;-86
2021/10/22 03:28:23;;;;;;;37.70;3.20;;;7.70;99.90;;;;;;5056182;28;20447;-86
2021/10/22 03:30:50;;;;;;;33.97;3.27;;;7.70;99.90;;;;;;5058372;28;20452;-86
2021/10/22 03:33:17;;;;;;;37.33;4.20;;;7.70;99.90;;;;;;5059940;28;20484;-86
2021/10/22 03:35:44;;;;;;;34.20;3.43;;;7.80;99.90;;;;;;5061068;28;20449;-85
2021/10/22 03:38:12;;;;;;;35.17;3.60;;;7.70;99.90;;;;;;5058273;28;20460;-86
2021/10/22 03:40:39;;;;;;;39.80;3.30;;;7.70;99.90;;;;;;5059951;28;20488;-86
2021/10/22 03:43:06;;;;;;;35.10;2.90;;;7.70;99.90;;;;;;5061213;28;20455;-86
2021/10/22 03:45:33;;;;;;;38.83;3.07;;;7.70;99.90;;;;;;5058077;28;20452;-87
2021/10/22 03:47:59;;;;;;;31.97;2.90;;;7.70;99.90;;;;;;5057584;28;20519;-86
2021/10/22 03:50:26;;;;;;;36.63;3.27;;;7.60;99.90;;;;;;5060071;28;20452;-86
2021/10/22 03:52:54;;;;;;;38.47;3.60;;;7.60;99.90;;;;;;5062307;28;20448;-84
2021/10/22 03:55:22;;;;;;;38.50;3.40;;;7.60;99.90;;;;;;5074603;22;20502;-79
2021/10/22 03:57:49;;;;;;;36.27;2.80;;;7.60;99.90;;;;;;5056732;28;20454;-80
2021/10/22 04:00:16;;;;;;;33.17;3.40;;;7.60;99.90;;;;;;5055884;28;20452;-79
2021/10/22 04:02:43;;;;;;;38.63;3.73;;;8.90;99.90;;;;;;5057044;28;20481;-80
2021/10/22 04:05:09;;;;;;;36.60;3.53;;;9.50;99.90;;;;;;5057027;28;20477;-81
2021/10/22 04:07:37;;;;;;;42.37;5.00;;;10.10;99.90;;;;;;5058635;28;20975;-82
2021/10/22 04:10:05;;;;;;;35.77;2.80;;;9.90;99.90;;;;;;5057143;28;20448;-80
2021/10/22 04:12:34;;;;;;;39.50;3.47;;;9.70;99.90;;;;;;5060396;28;20507;-84
2021/10/22 04:15:01;;;;;;;43.17;3.57;;;9.50;99.90;;;;;;5051931;28;20491;-84
2021/10/22 04:17:27;;;;;;;39.53;3.37;;;9.00;99.90;;;;;;5022220;28;20464;-78
2021/10/22 04:19:54;;;;;;;41.43;3.23;;;8.80;99.90;;;;;;5056142;28;20495;-80
2021/10/22 04:22:21;;;;;;;39.47;3.30;;;8.60;99.90;;;;;;5051697;28;20989;-78
2021/10/22 04:24:48;;;;;;;34.30;3.03;;;8.50;99.90;;;;;;5053168;28;20486;-77
2021/10/22 04:27:15;;;;;;;34.63;2.80;;;8.30;99.90;;;;;;5055604;28;20456;-81
2021/10/22 04:29:43;;;;;;;33.33;2.43;;;8.20;99.90;;;;;;5058220;28;20457;-81
2021/10/22 04:32:10;;;;;;;38.13;3.00;;;8.10;99.90;;;;;;5057519;28;20456;-79
2021/10/22 04:34:37;;;;;;;37.03;2.90;;;8.00;99.90;;;;;;5058642;28;21068;-83
2021/10/22 04:37:22;;;;;;;40.53;3.20;;;7.80;99.90;;;;;;5057894;28;20435;-81
2021/10/22 04:42:39;;;;;;;39.90;3.50;;;7.70;99.90;;;;;;5057746;28;20494;-82
2021/10/22 04:45:09;;;;;;;36.83;2.63;;;7.80;99.90;;;;;;5059379;28;20471;-81
2021/10/22 04:47:36;;;;;;;35.20;2.37;;;7.60;99.90;;;;;;5058141;28;20535;-80
2021/10/22 04:50:05;;;;;;;37.43;2.43;;;7.70;99.90;;;;;;5058850;28;20448;-81
2021/10/22 04:52:32;;;;;;;38.50;2.83;;;7.60;99.90;;;;;;5058272;28;20476;-80
2021/10/22 04:54:59;;;;;;;40.90;3.30;;;7.60;99.90;;;;;;5058837;28;21002;-80
2021/10/22 04:57:25;;;;;;;38.23;2.63;;;7.50;99.90;;;;;;5057631;28;20542;-82
2021/10/22 04:59:52;;;;;;;35.93;2.63;;;7.60;99.90;;;;;;5059125;28;20523;-80
2021/10/22 05:02:20;;;;;;;41.03;3.37;;;7.50;99.90;;;;;;5038535;28;20571;-81
2021/10/22 05:04:48;;;;;;;38.20;3.53;;;7.50;99.90;;;;;;5042023;28;20476;-81
2021/10/22 05:07:15;;;;;;;39.50;2.70;;;7.40;99.90;;;;;;5056475;28;20463;-81
2021/10/22 05:09:41;;;;;;;41.73;3.30;;;7.50;99.90;;;;;;5057195;28;20507;-80
2021/10/22 05:12:08;;;;;;;43.37;3.20;;;7.60;99.90;;;;;;5058812;28;20986;-82
2021/10/22 05:14:35;;;;;;;38.83;2.67;;;7.60;99.90;;;;;;5060772;28;20448;-82
2021/10/22 05:17:03;;;;;;;37.33;2.60;;;7.60;99.90;;;;;;5057832;28;20459;-81
2021/10/22 05:19:31;;;;;;;42.77;2.60;;;7.70;99.90;;;;;;5060256;28;20475;-80
2021/10/22 05:21:59;;;;;;;41.27;3.27;;;7.70;99.90;;;;;;5060819;28;20475;-83
2021/10/22 05:24:25;;;;;;;39.67;3.00;;;7.80;99.90;;;;;;5061473;28;20455;-80
2021/10/22 05:26:52;;;;;;;39.57;3.00;;;7.80;99.90;;;;;;5055406;28;20444;-80
2021/10/22 05:29:19;;;;;;;41.00;3.50;;;7.80;99.90;;;;;;5055653;28;20482;-82
2021/10/22 05:31:46;;;;;;;38.03;2.83;;;7.90;99.90;;;;;;5061114;28;20455;-81
2021/10/22 05:34:13;;;;;;;45.23;3.87;;;7.80;99.90;;;;;;5062526;28;20993;-83
2021/10/22 05:36:41;;;;;;;38.83;3.03;;;7.90;99.90;;;;;;5062648;28;20558;-82
2021/10/22 05:39:08;;;;;;;41.87;4.70;;;7.90;99.90;;;;;;5063205;28;20450;-80
2021/10/22 05:41:35;;;;;;;36.43;4.83;;;7.90;99.90;;;;;;5074175;28;20478;-81
2021/10/22 05:44:02;;;;;;;42.80;3.30;;;7.90;99.90;;;;;;5063411;28;20948;-80
2021/10/22 05:46:29;;;;;;;40.40;2.90;;;7.90;99.90;;;;;;5060357;28;20473;-79
2021/10/22 05:48:56;;;;;;;40.03;2.60;;;7.90;99.90;;;;;;5060260;28;20544;-77
2021/10/22 05:51:23;;;;;;;38.23;2.67;;;7.80;99.90;;;;;;5061170;28;20534;-80
2021/10/22 05:53:53;;;;;;;41.00;2.77;;;7.80;99.90;;;;;;5057961;28;20487;-80
2021/10/22 05:56:20;;;;;;;41.60;2.90;;;7.80;99.90;;;;;;5057993;28;20495;-81
2021/10/22 05:58:47;;;;;;;36.10;3.17;;;7.90;99.90;;;;;;5061213;28;20515;-79
2021/10/22 06:01:13;;;;;;;38.07;3.27;;;7.70;99.90;;;;;;5064574;28;21026;-79
2021/10/22 06:03:40;;;;;;;39.60;3.00;;;7.70;99.90;;;;;;5060905;28;20539;-82
2021/10/22 06:06:07;;;;;;;38.80;3.63;;;7.70;99.90;;;;;;5054400;28;20475;-82
2021/10/22 06:08:34;;;;;;;47.83;17.03;;;7.60;99.90;;;;;;5058340;28;20546;-83
2021/10/22 06:11:07;;;;;;;44.80;3.87;;;7.60;99.90;;;;;;5058837;28;20553;-81
2021/10/22 06:13:34;;;;;;;44.60;3.03;;;7.60;99.90;;;;;;5060728;28;20456;-79
2021/10/22 06:16:01;;;;;;;39.40;3.10;;;7.60;99.90;;;;;;5068943;28;21070;-82
2021/10/22 06:18:28;;;;;;;43.03;2.90;;;7.60;99.90;;;;;;5056731;28;20471;-81
2021/10/22 06:20:57;;;;;;;43.93;3.30;;;7.60;99.90;;;;;;5056317;28;20458;-79
2021/10/22 06:26:15;;;;;;;38.10;3.00;;;7.60;99.90;;;;;;5046395;28;20468;-78
2021/10/22 06:28:42;;;;;;;39.50;3.20;;;7.70;99.90;;;;;;5062174;28;20441;-80
2021/10/22 06:31:12;;;;;;;38.10;3.20;;;7.60;99.90;;;;;;5063592;28;20466;-80
2021/10/22 06:33:39;;;;;;;39.07;3.00;;;7.70;99.90;;;;;;5064159;28;20463;-80
2021/10/22 06:36:06;;;;;;;39.43;2.40;;;7.70;99.90;;;;;;5048431;28;20473;-79
2021/10/22 06:38:33;;;;;;;44.20;3.10;;;7.70;99.90;;;;;;5045245;28;20451;-79
2021/10/22 06:41:00;;;;;;;40.67;2.23;;;7.70;99.90;;;;;;5057635;28;21004;-79
2021/10/22 06:43:28;;;;;;;40.30;2.30;;;7.80;99.90;;;;;;5044768;28;20524;-81
2021/10/22 06:45:55;;;;;;;42.97;2.73;;;7.70;99.90;;;;;;5061009;28;20476;-80
2021/10/22 06:48:22;;;;;;;44.33;3.00;;;7.70;99.90;;;;;;5057414;28;20448;-79
2021/10/22 06:50:49;;;;;;;41.50;3.50;;;7.80;99.90;;;;;;5058424;28;20481;-80
2021/10/22 06:53:16;;;;;;;42.53;2.77;;;7.80;99.90;;;;;;5064162;28;20455;-80
2021/10/22 06:55:43;;;;;;;37.90;2.47;;;7.90;99.90;;;;;;5054738;28;21008;-81
2021/10/22 06:58:09;;;;;;;40.33;3.40;;;8.10;99.90;;;;;;5057830;28;20447;-81
2021/10/22 07:00:38;;;;;;;46.13;4.30;;;8.10;99.90;;;;;;5057109;28;20540;-82
2021/10/22 07:03:05;;;;;;;41.37;3.93;;;8.20;99.90;;;;;;5057310;28;20483;-82
2021/10/22 07:05:52;;;;;;;39.73;2.80;;;8.20;99.90;;;;;;5046511;28;20483;-81
2021/10/22 07:08:18;;;;;;;41.23;2.73;;;8.20;99.90;;;;;;5051490;28;20513;-82
2021/10/22 07:10:44;;;;;;;46.53;3.33;;;8.20;99.90;;;;;;5055516;28;20444;-80
2021/10/22 07:13:11;;;;;;;43.67;3.50;;;8.30;99.90;;;;;;5058187;28;20262;-81
2021/10/22 07:15:40;;;;;;;42.47;3.10;;;8.30;99.90;;;;;;5053574;28;20551;-81
2021/10/22 07:18:06;;;;;;;44.27;3.13;;;8.40;99.90;;;;;;5056744;28;20453;-80
2021/10/22 07:20:35;;;;;;;50.80;2.67;;;8.50;99.90;;;;;;5043491;28;20498;-82
2021/10/22 07:23:05;;;;;;;42.70;3.10;;;8.60;99.90;;;;;;5053730;28;20530;-80
2021/10/22 07:25:35;;;;;;;40.17;2.37;;;8.60;99.90;;;;;;5052252;28;20860;-81
2021/10/22 07:28:08;;;;;;;41.10;3.10;;;8.60;99.90;;;;;;5050626;28;20509;-84
2021/10/22 07:30:36;;;;;;;42.80;2.97;;;8.60;99.90;;;;;;5040919;28;20465;-81
2021/10/22 07:33:04;;;;;;;41.70;3.23;;;8.70;99.90;;;;;;5045239;28;20458;-82
2021/10/22 07:35:31;;;;;;;43.50;2.97;;;8.60;99.90;;;;;;5047672;28;20502;-81
2021/10/22 07:37:58;;;;;;;39.90;2.30;;;8.60;99.90;;;;;;5053356;28;20460;-81
2021/10/22 07:40:25;;;;;;;38.77;2.40;;;8.60;99.90;;;;;;5052687;28;20832;-80
2021/10/22 07:42:52;;;;;;;43.30;2.90;;;8.60;99.90;;;;;;5052648;28;20484;-80
2021/10/22 07:45:19;;;;;;;42.80;2.60;;;8.70;99.90;;;;;;5054103;28;20479;-81
2021/10/22 07:47:46;;;;;;;45.33;3.33;;;8.70;99.90;;;;;;5053732;28;20457;-80
2021/10/22 07:50:15;;;;;;;43.80;3.50;;;8.70;99.90;;;;;;5050591;28;20464;-81
2021/10/22 07:52:42;;;;;;;45.00;2.63;;;8.70;99.90;;;;;;5045532;28;20480;-81
2021/10/22 07:55:09;;;;;;;40.00;3.73;;;8.70;99.90;;;;;;5051652;28;20494;-82
2021/10/22 07:57:35;;;;;;;44.77;3.20;;;8.80;99.90;;;;;;5054853;28;20520;-80
2021/10/22 08:00:04;;;;;;;38.13;2.97;;;8.80;99.90;;;;;;5053591;28;20460;-81
2021/10/22 08:02:30;;;;;;;40.70;2.50;;;8.80;99.90;;;;;;5052772;28;22647;-80
2021/10/22 08:04:58;;;;;;;42.43;2.90;;;9.00;99.90;;;;;;5052636;28;20475;-80
2021/10/22 08:07:29;;;;;;;43.80;3.80;;;9.00;99.90;;;;;;5054841;28;20460;-81
2021/10/22 08:09:57;;;;;;;40.80;3.60;;;9.00;99.90;;;;;;5046670;28;20452;-80
2021/10/22 08:12:25;;;;;;;37.30;2.60;;;9.00;99.90;;;;;;5047387;28;20451;-81
2021/10/22 08:14:52;;;;;;;41.03;3.50;;;9.00;99.90;;;;;;5054145;28;20476;-83
2021/10/22 08:17:20;;;;;;;39.43;3.10;;;9.10;99.90;;;;;;5055494;28;20874;-80
2021/10/22 08:19:53;;;;;;;41.50;2.93;;;9.20;99.90;;;;;;5052762;28;20540;-80
2021/10/22 08:22:29;;;;;;;42.50;2.60;;;9.20;99.90;;;;;;5054298;28;20479;-79
2021/10/22 08:25:00;;;;;;;43.53;2.80;;;9.20;99.90;;;;;;5054653;28;20825;-79
2021/10/22 08:27:28;;;;;;;40.20;2.80;;;9.10;99.90;;;;;;5046583;28;20884;-78
2021/10/22 08:29:55;;;;;;;41.60;3.57;;;9.20;99.90;;;;;;5056877;28;20445;-80
2021/10/22 08:32:24;;;;;;;39.77;3.27;;;9.20;99.90;;;;;;5054593;28;20548;-82
2021/10/22 08:34:51;;;;;;;39.83;2.80;;;9.40;99.90;;;;;;5054684;28;20477;-80
2021/10/22 08:37:18;;;;;;;43.80;3.00;;;9.50;99.90;;;;;;5055967;28;20549;-79
2021/10/22 08:39:47;;;;;;;40.50;2.67;;;9.50;99.90;;;;;;5050683;28;20453;-79
2021/10/22 08:42:21;;;;;;;40.13;3.70;;;9.50;99.90;;;;;;5041576;28;20482;-81
2021/10/22 08:44:49;;;;;;;41.13;2.63;;;9.60;99.90;;;;;;5061335;28;20484;-80
2021/10/22 08:47:16;;;;;;;36.80;2.50;;;9.60;99.90;;;;;;5067762;28;20429;-83
2021/10/22 08:49:43;;;;;;;49.87;2.90;;;9.80;99.90;;;;;;5057115;28;20473;-82
2021/10/22 08:52:09;;;;;;;44.57;2.70;;;9.80;99.90;;;;;;5058971;28;20467;-81
2021/10/22 08:54:39;;;;;;;42.73;5.40;;;9.80;99.90;;;;;;5071245;28;20480;-82
2021/10/22 08:57:07;;;;;;;42.07;3.30;;;9.70;99.90;;;;;;5048362;28;20456;-82
2021/10/22 08:59:35;;;;;;;43.50;4.17;;;9.60;99.90;;;;;;5046095;28;20985;-81
2021/10/22 09:02:17;;;;;;;44.53;2.70;;;9.70;99.90;;;;;;5054965;28;20978;-81
2021/10/22 09:04:45;;;;;;;41.77;2.60;;;9.70;99.90;;;;;;5057230;28;20498;-81
2021/10/22 09:07:15;;;;;;;37.53;2.70;;;9.80;99.90;;;;;;5054600;28;20462;-81
2021/10/22 09:09:42;;;;;;;41.73;2.80;;;9.80;99.90;;;;;;5055153;28;20455;-81
2021/10/22 09:12:09;;;;;;;39.73;2.93;;;10.00;99.90;;;;;;5054103;28;20462;-78
2021/10/22 09:14:39;;;;;;;34.77;2.40;;;10.00;99.90;;;;;;5060632;28;20458;-83
2021/10/22 09:17:13;;;;;;;38.07;2.70;;;9.90;99.90;;;;;;5049778;28;20454;-82
2021/10/22 09:19:44;;;;;;;37.53;3.40;;;10.00;99.90;;;;;;5049656;28;20449;-83
2021/10/22 09:22:22;;;;;;;37.03;2.30;;;10.10;99.90;;;;;;5050315;28;20460;-81
2021/10/22 09:24:54;;;;;;;39.10;3.00;;;10.30;99.90;;;;;;5052687;28;20470;-81
2021/10/22 09:27:49;;;;;;;39.83;2.60;;;10.40;99.90;;;;;;5055197;28;20886;-82
2021/10/22 09:30:37;;;;;;;39.90;2.77;;;10.50;99.90;;;;;;5001235;28;21028;-81
2021/10/22 09:33:06;;;;;;;37.70;3.20;;;10.70;99.90;;;;;;5055244;28;20470;-81
2021/10/22 09:35:36;;;;;;;39.63;2.40;;;10.70;99.90;;;;;;5051081;28;20485;-83
2021/10/22 09:38:08;;;;;;;38.60;2.73;;;10.70;99.90;;;;;;5050574;28;20459;-81
2021/10/22 09:40:36;;;;;;;37.30;2.20;;;10.70;99.90;;;;;;5042315;28;20893;-83
2021/10/22 09:43:11;;;;;;;41.90;2.73;;;10.70;99.90;;;;;;5051079;28;21021;-82
2021/10/22 09:45:40;;;;;;;36.60;1.93;;;10.80;99.90;;;;;;5053774;28;20475;-81
2021/10/22 09:48:22;;;;;;;37.77;3.10;;;11.00;99.90;;;;;;5050818;28;20480;-82
2021/10/22 09:50:49;;;;;;;35.13;2.70;;;11.20;99.90;;;;;;5050041;28;20482;-81
2021/10/22 09:53:27;;;;;;;37.20;2.60;;;11.10;99.90;;;;;;5054400;28;20482;-81
2021/10/22 09:56:06;;;;;;;39.60;2.33;;;11.20;99.90;;;;;;5045641;28;20486;-81
2021/10/22 09:58:34;;;;;;;42.23;2.83;;;11.20;99.90;;;;;;5053427;28;20470;-78
2021/10/22 10:01:13;;;;;;;31.42;3.30;;;11.40;99.90;;;;;;5049288;28;20447;-82
2021/10/22 10:03:41;;;;;;;31.93;3.23;;;11.60;99.90;;;;;;5049697;28;20225;-80
2021/10/22 10:06:10;;;;;;;35.83;3.07;;;11.60;99.90;;;;;;5058655;28;20479;-83
2021/10/22 10:08:39;;;;;;;45.17;10.77;;;11.60;99.90;;;;;;5067960;28;20451;-82
2021/10/22 10:11:07;;;;;;;33.40;3.33;;;11.90;99.90;;;;;;5062988;28;20459;-81
2021/10/22 10:13:35;;;;;;;37.97;3.10;;;12.00;99.90;;;;;;5065497;22;20925;-83
2021/10/22 10:16:07;;;;;;;32.30;2.50;;;12.40;99.90;;;;;;5035726;28;20457;-83
2021/10/22 10:18:41;;;;;;;33.23;2.03;;;12.60;99.90;;;;;;5020177;28;20466;-83
2021/10/22 10:21:10;;;;;;;34.63;2.93;;;12.90;99.90;;;;;;5044238;28;20451;-82
2021/10/22 10:23:41;;;;;;;32.37;2.40;;;13.10;99.90;;;;;;5049114;28;20555;-82
2021/10/22 10:26:22;;;;;;;30.30;2.57;;;13.60;99.90;;;;;;5025025;28;20552;-83
2021/10/22 10:28:50;;;;;;;30.70;2.10;;;14.10;99.90;;;;;;5024017;28;20484;-84
2021/10/22 10:31:32;;;;;;;31.60;2.73;;;15.40;99.90;;;;;;5025430;28;20452;-83
2021/10/22 10:34:02;;;;;;;30.03;3.10;;;14.90;99.90;;;;;;5031434;28;20468;-86
2021/10/22 10:36:48;;;;;;;30.67;2.63;;;14.70;99.90;;;;;;5023343;28;20474;-84
2021/10/22 10:39:35;;;;;;;27.40;2.83;;;15.60;99.90;;;;;;5032886;28;20441;-85
2021/10/22 10:42:16;;;;;;;28.77;2.27;;;16.50;99.90;;;;;;5024772;28;20539;-84
2021/10/22 10:44:43;;;;;;;28.83;2.57;;;15.90;99.90;;;;;;5016809;28;20496;-85
2021/10/22 10:47:41;;;;;;;27.27;2.23;;;15.40;99.90;;;;;;5025720;28;20443;-84
2021/10/22 10:50:11;;;;;;;35.50;3.20;;;15.70;99.90;;;;;;5021708;28;20476;-84
2021/10/22 10:53:01;;;;;;;29.47;2.50;;;16.00;99.90;;;;;;5029407;28;21066;-82
2021/10/22 10:55:32;;;;;;;30.00;2.20;;;16.70;99.90;;;;;;5003384;28;20542;-84
2021/10/22 10:58:12;;;;;;;31.40;2.47;;;16.50;99.90;;;;;;5024218;28;20449;-84
2021/10/22 11:00:41;;;;;;;32.27;2.80;;;16.00;99.90;;;;;;5017302;28;20451;-85
2021/10/22 11:03:19;;;;;;;30.90;2.30;;;15.50;99.90;;;;;;5027619;28;20490;-83
2021/10/22 11:06:13;;;;;;;31.23;2.03;;;15.70;99.90;;;;;;5022815;28;20519;-84
2021/10/22 11:08:49;;;;;;;31.03;1.60;;;15.70;99.90;;;;;;5018747;28;20476;-84
2021/10/22 11:11:27;;;;;;;31.90;2.40;;;15.60;99.90;;;;;;5014272;28;20456;-83
2021/10/22 11:13:56;;;;;;;33.03;3.47;;;15.10;99.90;;;;;;5033954;28;20503;-84
2021/10/22 11:16:35;;;;;;;35.30;2.27;;;14.60;99.90;;;;;;5019560;28;20508;-84
2021/10/22 11:19:04;;;;;;;34.50;2.83;;;14.30;99.90;;;;;;5022527;28;20472;-84
2021/10/22 11:21:34;;;;;;;31.10;2.90;;;14.00;99.90;;;;;;5017992;28;20557;-83
2021/10/22 11:24:02;;;;;;;32.00;2.43;;;13.50;99.90;;;;;;5019230;28;20493;-84
2021/10/22 11:26:30;;;;;;;31.57;2.33;;;13.20;99.90;;;;;;5014895;28;20568;-85
2021/10/22 11:28:58;;;;;;;32.73;2.33;;;13.20;99.90;;;;;;5012288;28;20531;-84
2021/10/22 11:31:40;;;;;;;22.60;1.53;;;13.00;99.90;;;;;;5021278;28;20511;-85
2021/10/22 11:34:08;;;;;;;34.17;2.10;;;12.70;99.90;;;;;;5020677;28;20542;-84
2021/10/22 11:36:37;;;;;;;35.03;2.10;;;12.50;99.90;;;;;;5026748;28;20458;-84
2021/10/22 11:39:16;;;;;;;35.87;4.07;;;12.40;99.90;;;;;;5022262;28;20556;-84
2021/10/22 11:41:43;;;;;;;34.47;2.50;;;12.30;99.90;;;;;;5017591;28;20500;-85
2021/10/22 11:44:10;;;;;;;32.57;2.40;;;12.30;99.90;;;;;;5021995;28;20488;-85
2021/10/22 11:46:41;;;;;;;38.40;2.90;;;12.10;99.90;;;;;;5031038;28;20465;-84
2021/10/22 11:49:08;;;;;;;30.90;2.17;;;12.00;99.90;;;;;;5025598;28;22413;-83
2021/10/22 11:51:37;;;;;;;36.10;2.67;;;12.00;99.90;;;;;;5019004;28;20526;-81
2021/10/22 11:54:05;;;;;;;34.33;2.80;;;11.90;99.90;;;;;;5037978;28;20498;-83
2021/10/22 11:56:36;;;;;;;36.90;2.37;;;11.80;99.90;;;;;;5019425;28;20469;-83
2021/10/22 11:59:03;;;;;;;32.80;2.40;;;11.80;99.90;;;;;;5017218;28;20457;-84
2021/10/22 12:01:31;;;;;;;37.93;2.57;;;11.60;99.90;;;;;;5031477;28;20460;-84
2021/10/22 12:04:00;;;;;;;31.70;2.07;;;11.60;99.90;;;;;;5025821;28;20484;-81
2021/10/22 12:06:27;;;;;;;31.33;1.97;;;11.60;99.90;;;;;;5019784;28;20465;-82
2021/10/22 12:08:57;;;;;;;30.23;2.53;;;11.70;99.90;;;;;;5024548;28;20472;-81
2021/10/22 12:11:25;;;;;;;29.07;2.70;;;11.70;99.90;;;;;;5009183;28;20446;-83
2021/10/22 12:13:53;;;;;;;26.30;1.93;;;11.90;99.90;;;;;;5016539;28;20905;-86
2021/10/22 12:16:21;;;;;;;32.47;2.00;;;12.00;99.90;;;;;;5016989;28;20459;-84
2021/10/22 12:18:52;;;;;;;33.90;2.73;;;12.20;99.90;;;;;;5021679;28;20839;-84
2021/10/22 12:21:20;;;;;;;32.80;2.57;;;12.10;99.90;;;;;;5015487;28;20512;-84
2021/10/22 12:23:57;;;;;;;34.50;2.37;;;12.10;99.90;;;;;;5016996;28;20494;-86
2021/10/22 12:26:25;;;;;;;31.33;1.77;;;12.30;99.90;;;;;;5013038;28;20467;-86
2021/10/22 12:29:01;;;;;;;33.37;2.07;;;12.60;99.90;;;;;;5018479;28;20836;-85
2021/10/22 12:31:32;;;;;;;35.80;2.77;;;13.00;99.90;;;;;;5016217;28;20464;-85
2021/10/22 12:34:05;;;;;;;34.70;2.30;;;13.20;99.90;;;;;;5017703;28;20490;-86
2021/10/22 12:36:32;;;;;;;33.50;2.13;;;13.80;99.90;;;;;;5017247;28;20463;-85
2021/10/22 12:39:01;;;;;;;36.20;3.03;;;15.30;99.90;;;;;;5020516;28;20473;-86
2021/10/22 12:41:28;;;;;;;36.63;2.40;;;15.20;99.90;;;;;;5016114;28;20453;-86
2021/10/22 12:44:11;;;;;;;34.70;2.10;;;14.80;99.90;;;;;;5015723;28;20496;-86
2021/10/22 12:46:52;;;;;;;33.07;2.67;;;14.80;99.90;;;;;;5008102;28;20450;-86
2021/10/22 12:49:23;;;;;;;34.67;2.20;;;15.10;99.90;;;;;;5015353;28;20517;-85
2021/10/22 12:51:55;;;;;;;43.37;2.43;;;14.80;99.90;;;;;;5009585;28;21024;-85
2021/10/22 12:54:24;;;;;;;30.33;2.20;;;14.70;99.90;;;;;;5019611;28;20486;-85
2021/10/22 12:56:56;;;;;;;36.53;2.40;;;14.70;99.90;;;;;;5016512;28;20499;-85
2021/10/22 12:59:23;;;;;;;32.10;2.30;;;14.30;99.90;;;;;;5009440;28;20453;-84